createdAt,value
2022-09-12T00:01:36.399Z,100.00
2022-09-12T00:04:03.238Z,100.00
2022-09-12T00:06:33.096Z,100.00
2022-09-12T00:09:03.074Z,100.00
2022-09-12T00:11:30.291Z,100.00
2022-09-12T00:14:01.816Z,100.00
2022-09-12T00:16:29.877Z,100.00
2022-09-12T00:18:56.613Z,100.00
2022-09-12T00:21:24.711Z,100.00
2022-09-12T00:23:52.082Z,100.00
2022-09-12T00:26:20.632Z,100.00
2022-09-12T00:28:48.299Z,100.00
2022-09-12T00:31:17.977Z,100.00
2022-09-12T00:33:44.999Z,100.00
2022-09-12T00:36:15.318Z,100.00
2022-09-12T00:38:43.127Z,100.00
2022-09-12T00:41:34.264Z,100.00
2022-09-12T00:44:22.856Z,100.00
2022-09-12T00:46:52.537Z,100.00
2022-09-12T00:49:30.419Z,100.00
2022-09-12T00:52:09.889Z,100.00
2022-09-12T00:54:45.291Z,100.00
2022-09-12T00:57:14.742Z,100.00
2022-09-12T00:59:52.241Z,100.00
2022-09-12T01:02:18.924Z,100.00
2022-09-12T01:04:47.901Z,100.00
2022-09-12T01:07:15.465Z,100.00
2022-09-12T01:09:44.634Z,100.00
2022-09-12T01:12:12.801Z,100.00
2022-09-12T01:14:39.828Z,100.00
2022-09-12T01:17:06.609Z,100.00
2022-09-12T01:20:15.638Z,100.00
2022-09-12T01:22:51.452Z,100.00
2022-09-12T01:25:31.644Z,100.00
2022-09-12T01:28:30.651Z,100.00
2022-09-12T01:31:00.940Z,100.00
2022-09-12T01:33:50.839Z,100.00
2022-09-12T01:36:36.185Z,100.00
2022-09-12T01:39:04.888Z,100.00
2022-09-12T01:41:50.369Z,100.00
2022-09-12T01:44:20.087Z,100.00
2022-09-12T01:47:10.238Z,100.00
2022-09-12T01:50:15.684Z,100.00
2022-09-12T01:52:51.170Z,100.00
2022-09-12T01:55:29.899Z,100.00
2022-09-12T01:58:12.563Z,100.00
2022-09-12T02:00:48.177Z,100.00
2022-09-12T02:03:20.717Z,100.00
2022-09-12T02:05:55.021Z,100.00
2022-09-12T02:08:48.566Z,100.00
2022-09-12T02:11:15.281Z,100.00
2022-09-12T02:13:55.243Z,100.00
2022-09-12T02:16:36.691Z,100.00
2022-09-12T02:19:09.664Z,100.00
2022-09-12T02:21:41.782Z,100.00
2022-09-12T02:24:09.947Z,100.00
2022-09-12T02:26:44.323Z,100.00
2022-09-12T02:29:11.088Z,100.00
2022-09-12T02:31:46.611Z,100.00
2022-09-12T02:34:28.939Z,100.00
2022-09-12T02:37:17.801Z,100.00
2022-09-12T02:39:45.486Z,100.00
2022-09-12T02:42:13.463Z,100.00
2022-09-12T02:44:41.028Z,100.00
2022-09-12T02:47:26.778Z,100.00
2022-09-12T02:49:54.260Z,100.00
2022-09-12T02:52:21.502Z,100.00
2022-09-12T02:54:49.178Z,100.00
2022-09-12T02:57:22.380Z,100.00
2022-09-12T02:59:52.667Z,100.00
2022-09-12T03:02:48.677Z,100.00
2022-09-12T03:05:31.889Z,100.00
2022-09-12T03:08:17.293Z,100.00
2022-09-12T03:11:05.481Z,100.00
2022-09-12T03:13:58.175Z,100.00
2022-09-12T03:16:58.405Z,100.00
2022-09-12T03:19:27.898Z,100.00
2022-09-12T03:22:11.623Z,100.00
2022-09-12T03:24:48.577Z,100.00
2022-09-12T03:27:19.043Z,100.00
2022-09-12T03:29:48.196Z,100.00
2022-09-12T03:32:15.468Z,100.00
2022-09-12T03:34:42.097Z,100.00
2022-09-12T03:37:08.776Z,100.00
2022-09-12T03:39:35.513Z,100.00
2022-09-12T03:42:02.185Z,100.00
2022-09-12T03:44:29.142Z,100.00
2022-09-12T03:46:55.844Z,100.00
2022-09-12T03:49:22.610Z,100.00
2022-09-12T03:51:49.347Z,100.00
2022-09-12T03:54:16.168Z,100.00
2022-09-12T03:56:42.797Z,100.00
2022-09-12T03:59:09.435Z,100.00
2022-09-12T04:01:36.129Z,100.00
2022-09-12T04:04:02.945Z,100.00
2022-09-12T04:06:29.835Z,100.00
2022-09-12T04:08:56.522Z,100.00
2022-09-12T04:11:23.639Z,100.00
2022-09-12T04:13:50.328Z,100.00
2022-09-12T04:16:18.073Z,100.00
2022-09-12T04:18:45.905Z,100.00
2022-09-12T04:21:18.904Z,100.00
2022-09-12T04:23:45.834Z,100.00
2022-09-12T04:26:13.917Z,100.00
2022-09-12T04:28:41.801Z,100.00
2022-09-12T04:31:15.683Z,100.00
2022-09-12T04:33:42.363Z,100.00
2022-09-12T04:36:12.177Z,100.00
2022-09-12T04:38:39.052Z,100.00
2022-09-12T04:41:16.933Z,100.00
2022-09-12T04:43:46.578Z,100.00
2022-09-12T04:46:15.490Z,100.00
2022-09-12T04:48:43.333Z,100.00
2022-09-12T04:51:12.258Z,100.00
2022-09-12T04:53:39.138Z,100.00
2022-09-12T04:56:08.151Z,100.00
2022-09-12T04:58:35.808Z,100.00
2022-09-12T05:01:11.766Z,100.00
2022-09-12T05:03:39.615Z,100.00
2022-09-12T05:06:08.418Z,100.00
2022-09-12T05:08:35.567Z,100.00
2022-09-12T05:11:05.105Z,100.00
2022-09-12T05:13:32.987Z,100.00
2022-09-12T05:16:01.567Z,100.00
2022-09-12T05:18:29.140Z,100.00
2022-09-12T05:20:55.741Z,100.00
2022-09-12T05:23:22.575Z,100.00
2022-09-12T05:25:53.303Z,100.00
2022-09-12T05:28:21.123Z,100.00
2022-09-12T05:30:48.533Z,100.00
2022-09-12T05:33:15.509Z,100.00
2022-09-12T05:35:42.100Z,100.00
2022-09-12T05:38:08.737Z,100.00
2022-09-12T05:40:35.772Z,100.00
2022-09-12T05:43:02.414Z,100.00
2022-09-12T05:45:29.985Z,100.00
2022-09-12T05:47:56.717Z,100.00
2022-09-12T05:50:23.362Z,100.00
2022-09-12T05:52:50.593Z,100.00
2022-09-12T05:55:17.368Z,100.00
2022-09-12T05:57:46.102Z,100.00
2022-09-12T06:00:14.955Z,100.00
2022-09-12T06:02:42.204Z,100.00
2022-09-12T06:05:09.178Z,100.00
2022-09-12T06:07:36.175Z,100.00
2022-09-12T06:10:05.354Z,100.00
2022-09-12T06:12:32.134Z,100.00
2022-09-12T06:14:58.734Z,100.00
2022-09-12T06:17:25.363Z,100.00
2022-09-12T06:19:52.054Z,99.29
2022-09-12T06:22:19.257Z,98.52
2022-09-12T06:24:45.934Z,97.44
2022-09-12T06:27:12.581Z,96.41
2022-09-12T06:29:39.239Z,95.78
2022-09-12T06:32:07.031Z,94.92
2022-09-12T06:34:33.872Z,93.95
2022-09-12T06:37:00.528Z,93.41
2022-09-12T06:39:27.269Z,92.73
2022-09-12T06:41:54.338Z,92.11
2022-09-12T06:44:32.947Z,91.13
2022-09-12T06:46:59.633Z,91.41
2022-09-12T06:49:26.451Z,92.05
2022-09-12T06:51:53.086Z,92.19
2022-09-12T06:54:20.159Z,90.66
2022-09-12T06:56:46.859Z,90.56
2022-09-12T06:59:13.556Z,91.16
2022-09-12T07:01:41.874Z,89.56
2022-09-12T07:04:08.814Z,88.20
2022-09-12T07:06:40.700Z,87.41
2022-09-12T07:09:10.542Z,86.37
2022-09-12T07:11:38.467Z,86.25
2022-09-12T07:14:06.839Z,86.63
2022-09-12T07:16:35.961Z,84.69
2022-09-12T07:19:04.181Z,84.71
2022-09-12T07:21:30.945Z,83.78
2022-09-12T07:23:58.467Z,82.54
2022-09-12T07:26:28.126Z,82.35
2022-09-12T07:29:07.930Z,82.06
2022-09-12T07:31:39.748Z,81.28
2022-09-12T07:34:06.864Z,80.63
2022-09-12T07:36:34.480Z,82.35
2022-09-12T07:39:01.722Z,83.28
2022-09-12T07:41:30.701Z,83.85
2022-09-12T07:43:59.061Z,82.37
2022-09-12T07:46:27.819Z,82.85
2022-09-12T07:48:56.501Z,81.55
2022-09-12T07:51:24.418Z,80.34
2022-09-12T07:53:51.858Z,79.49
2022-09-12T07:56:19.957Z,79.25
2022-09-12T07:58:47.121Z,78.16
2022-09-12T08:01:23.157Z,76.80
2022-09-12T08:03:54.307Z,77.99
2022-09-12T08:06:25.212Z,77.93
2022-09-12T08:08:54.185Z,75.89
2022-09-12T08:11:23.170Z,75.84
2022-09-12T08:13:55.424Z,76.20
2022-09-12T08:16:24.574Z,74.71
2022-09-12T08:18:51.437Z,74.71
2022-09-12T08:21:23.221Z,74.12
2022-09-12T08:24:01.777Z,74.20
2022-09-12T08:26:28.936Z,73.08
2022-09-12T08:28:55.610Z,72.09
2022-09-12T08:31:24.326Z,72.72
2022-09-12T08:33:51.175Z,71.82
2022-09-12T08:36:21.232Z,70.26
2022-09-12T08:38:50.249Z,70.96
2022-09-12T08:41:55.996Z,69.34
2022-09-12T08:44:28.664Z,70.01
2022-09-12T08:47:26.884Z,69.36
2022-09-12T08:50:08.938Z,67.74
2022-09-12T08:52:41.560Z,67.55
2022-09-12T08:55:25.734Z,69.04
2022-09-12T08:57:52.779Z,69.94
2022-09-12T09:00:21.461Z,68.21
2022-09-12T09:02:54.366Z,67.42
2022-09-12T09:05:30.047Z,67.48
2022-09-12T09:08:05.745Z,67.29
2022-09-12T09:10:35.296Z,66.54
2022-09-12T09:13:51.976Z,64.88
2022-09-12T09:16:32.233Z,66.19
2022-09-12T09:19:04.457Z,66.27
2022-09-12T09:21:54.567Z,65.59
2022-09-12T09:24:33.901Z,65.26
2022-09-12T09:27:39.227Z,64.50
2022-09-12T09:30:14.328Z,64.55
2022-09-12T09:32:42.846Z,63.44
2022-09-12T09:35:39.210Z,60.66
2022-09-12T09:38:22.366Z,60.50
2022-09-12T09:41:09.191Z,60.26
2022-09-12T09:43:38.012Z,59.59
2022-09-12T09:46:05.401Z,60.72
2022-09-12T09:48:35.932Z,59.15
2022-09-12T09:51:07.169Z,58.83
2022-09-12T09:53:58.317Z,58.89
2022-09-12T09:56:36.905Z,58.77
2022-09-12T09:59:15.541Z,59.07
2022-09-12T10:02:03.938Z,59.14
2022-09-12T10:04:41.432Z,58.68
2022-09-12T10:07:19.936Z,58.19
2022-09-12T10:10:07.057Z,58.18
2022-09-12T10:12:33.709Z,57.93
2022-09-12T10:15:02.311Z,58.18
2022-09-12T10:17:34.633Z,59.42
2022-09-12T10:20:20.448Z,58.80
2022-09-12T10:22:49.337Z,59.55
2022-09-12T10:25:18.652Z,58.71
2022-09-12T10:27:53.771Z,58.07
2022-09-12T10:30:24.775Z,57.72
2022-09-12T10:32:54.197Z,57.86
2022-09-12T10:35:42.547Z,57.37
2022-09-12T10:38:24.962Z,55.89
2022-09-12T10:41:01.484Z,56.08
2022-09-12T10:43:39.227Z,56.34
2022-09-12T10:46:15.685Z,55.51
2022-09-12T10:48:44.533Z,55.82
2022-09-12T10:51:28.967Z,57.44
2022-09-12T10:54:01.062Z,56.45
2022-09-12T10:56:33.672Z,56.20
2022-09-12T10:59:16.772Z,55.50
2022-09-12T11:01:49.575Z,54.78
2022-09-12T11:04:45.816Z,56.34
2022-09-12T11:07:27.465Z,57.03
2022-09-12T11:10:03.079Z,55.92
2022-09-12T11:12:51.220Z,55.37
2022-09-12T11:15:27.008Z,55.02
2022-09-12T11:18:14.853Z,53.76
2022-09-12T11:21:02.009Z,52.86
2022-09-12T11:24:07.183Z,54.93
2022-09-12T11:26:52.052Z,53.20
2022-09-12T11:29:45.709Z,53.80
2022-09-12T11:32:27.577Z,52.55
2022-09-12T11:34:58.248Z,51.30
2022-09-12T11:37:55.852Z,50.20
2022-09-12T11:40:22.975Z,50.67
2022-09-12T11:42:54.656Z,50.69
2022-09-12T11:45:29.324Z,50.68
2022-09-12T11:48:04.187Z,50.55
2022-09-12T11:50:32.354Z,49.73
2022-09-12T11:53:12.532Z,48.04
2022-09-12T11:55:49.374Z,47.55
2022-09-12T11:58:20.178Z,48.97
2022-09-12T12:01:03.308Z,49.85
2022-09-12T12:03:40.334Z,49.21
2022-09-12T12:06:31.927Z,47.96
2022-09-12T12:08:59.087Z,48.23
2022-09-12T12:11:31.020Z,48.13
2022-09-12T12:14:06.145Z,47.99
2022-09-12T12:16:37.213Z,48.84
2022-09-12T12:19:31.281Z,48.80
2022-09-12T12:22:09.080Z,48.26
2022-09-12T12:24:55.795Z,49.65
2022-09-12T12:27:55.273Z,46.17
2022-09-12T12:30:31.147Z,47.87
2022-09-12T12:33:16.011Z,48.88
2022-09-12T12:35:47.933Z,46.59
2022-09-12T12:38:29.798Z,47.44
2022-09-12T12:41:15.211Z,46.68
2022-09-12T12:43:41.971Z,46.70
2022-09-12T12:46:14.373Z,46.41
2022-09-12T12:48:55.611Z,47.09
2022-09-12T12:51:49.393Z,47.69
2022-09-12T12:54:51.081Z,47.50
2022-09-12T12:57:19.881Z,47.44
2022-09-12T12:59:58.235Z,46.64
2022-09-12T13:02:41.358Z,45.86
2022-09-12T13:05:21.139Z,45.41
2022-09-12T13:07:55.715Z,46.95
2022-09-12T13:10:25.307Z,45.38
2022-09-12T13:12:53.177Z,46.62
2022-09-12T13:15:38.042Z,46.94
2022-09-12T13:18:27.908Z,45.54
2022-09-12T13:20:54.475Z,44.73
2022-09-12T13:23:26.628Z,45.29
2022-09-12T13:26:01.916Z,45.01
2022-09-12T13:28:30.159Z,45.38
2022-09-12T13:31:25.805Z,42.59
2022-09-12T13:33:59.985Z,43.13
2022-09-12T13:36:30.139Z,44.32
2022-09-12T13:39:15.505Z,45.18
2022-09-12T13:42:03.273Z,43.02
2022-09-12T13:44:32.836Z,41.40
2022-09-12T13:47:03.075Z,40.16
2022-09-12T13:49:35.319Z,41.92
2022-09-12T13:52:06.275Z,42.84
2022-09-12T13:54:37.918Z,41.04
2022-09-12T13:57:05.269Z,38.23
2022-09-12T13:59:42.748Z,39.81
2022-09-12T14:02:23.784Z,40.24
2022-09-12T14:05:11.495Z,39.20
2022-09-12T14:07:56.196Z,40.01
2022-09-12T14:10:35.746Z,39.88
2022-09-12T14:13:10.556Z,40.65
2022-09-12T14:15:37.904Z,41.01
2022-09-12T14:18:08.875Z,40.53
2022-09-12T14:20:38.679Z,41.16
2022-09-12T14:23:22.213Z,42.93
2022-09-12T14:25:49.961Z,44.60
2022-09-12T14:28:23.146Z,44.79
2022-09-12T14:31:01.672Z,44.15
2022-09-12T14:33:29.466Z,44.04
2022-09-12T14:36:34.590Z,44.35
2022-09-12T14:39:04.598Z,43.98
2022-09-12T14:41:38.456Z,44.39
2022-09-12T14:44:08.556Z,45.44
2022-09-12T14:46:37.979Z,45.63
2022-09-12T14:49:41.169Z,45.50
2022-09-12T14:52:25.075Z,47.02
2022-09-12T14:55:03.785Z,48.25
2022-09-12T14:57:38.887Z,49.02
2022-09-12T15:00:11.844Z,49.34
2022-09-12T15:02:42.909Z,49.10
2022-09-12T15:05:12.049Z,49.71
2022-09-12T15:08:00.530Z,48.97
2022-09-12T15:10:38.143Z,49.60
2022-09-12T15:13:16.992Z,50.39
2022-09-12T15:15:47.913Z,50.91
2022-09-12T15:18:15.123Z,51.80
2022-09-12T15:20:44.282Z,52.17
2022-09-12T15:23:17.050Z,52.64
2022-09-12T15:25:43.625Z,53.26
2022-09-12T15:28:18.029Z,53.49
2022-09-12T15:30:45.142Z,53.43
2022-09-12T15:33:12.227Z,53.45
2022-09-12T15:35:39.392Z,52.87
2022-09-12T15:38:06.099Z,53.77
2022-09-12T15:40:32.693Z,53.16
2022-09-12T15:42:59.750Z,53.53
2022-09-12T15:45:29.422Z,53.65
2022-09-12T15:47:56.797Z,53.74
2022-09-12T15:50:23.868Z,53.86
2022-09-12T15:52:50.566Z,54.17
2022-09-12T15:55:22.294Z,54.18
2022-09-12T15:57:48.871Z,54.35
2022-09-12T16:00:17.828Z,54.62
2022-09-12T16:02:46.440Z,55.00
2022-09-12T16:05:23.367Z,55.53
2022-09-12T16:07:53.329Z,55.35
2022-09-12T16:10:23.865Z,55.59
2022-09-12T16:12:51.441Z,56.19
2022-09-12T16:15:21.258Z,56.42
2022-09-12T16:17:47.999Z,56.13
2022-09-12T16:20:14.900Z,55.97
2022-09-12T16:22:41.749Z,56.83
2022-09-12T16:25:09.210Z,56.93
2022-09-12T16:27:37.468Z,57.06
2022-09-12T16:30:07.229Z,56.62
2022-09-12T16:32:33.980Z,56.91
2022-09-12T16:35:00.709Z,56.45
2022-09-12T16:37:27.618Z,56.87
2022-09-12T16:39:54.229Z,56.98
2022-09-12T16:42:20.925Z,57.13
2022-09-12T16:44:47.677Z,56.87
2022-09-12T16:47:14.925Z,57.11
2022-09-12T16:49:41.534Z,57.17
2022-09-12T16:52:08.714Z,58.62
2022-09-12T16:54:35.363Z,59.69
2022-09-12T16:57:02.648Z,60.76
2022-09-12T16:59:29.327Z,61.88
2022-09-12T17:01:56.048Z,62.33
2022-09-12T17:04:23.707Z,63.27
2022-09-12T17:06:50.549Z,63.73
2022-09-12T17:09:18.678Z,64.38
2022-09-12T17:11:47.790Z,65.04
2022-09-12T17:14:14.436Z,65.32
2022-09-12T17:16:47.967Z,65.61
2022-09-12T17:19:26.429Z,66.01
2022-09-12T17:21:53.097Z,65.83
2022-09-12T17:24:20.213Z,65.55
2022-09-12T17:26:47.048Z,65.51
2022-09-12T17:29:14.251Z,65.53
2022-09-12T17:31:41.917Z,65.63
2022-09-12T17:34:09.214Z,65.84
2022-09-12T17:36:35.864Z,66.44
2022-09-12T17:39:04.161Z,66.74
2022-09-12T17:41:34.726Z,66.82
2022-09-12T17:44:03.443Z,66.87
2022-09-12T17:46:34.954Z,67.29
2022-09-12T17:49:03.638Z,68.67
2022-09-12T17:51:31.244Z,68.30
2022-09-12T17:54:00.122Z,68.74
2022-09-12T17:56:28.398Z,69.66
2022-09-12T17:58:56.731Z,70.01
2022-09-12T18:01:43.160Z,70.14
2022-09-12T18:04:10.832Z,69.73
2022-09-12T18:06:38.037Z,70.09
2022-09-12T18:09:07.658Z,69.93
2022-09-12T18:11:34.698Z,70.05
2022-09-12T18:14:02.635Z,70.43
2022-09-12T18:16:29.546Z,71.21
2022-09-12T18:18:56.379Z,71.38
2022-09-12T18:21:23.026Z,71.69
2022-09-12T18:23:49.627Z,72.14
2022-09-12T18:26:16.297Z,73.47
2022-09-12T18:28:44.354Z,74.30
2022-09-12T18:31:14.458Z,74.89
2022-09-12T18:33:41.239Z,76.39
2022-09-12T18:36:10.523Z,77.14
2022-09-12T18:38:38.073Z,77.72
2022-09-12T18:41:06.741Z,77.56
2022-09-12T18:43:33.416Z,77.64
2022-09-12T18:46:07.247Z,76.63
2022-09-12T18:48:34.944Z,75.39
2022-09-12T18:51:09.889Z,75.59
2022-09-12T18:53:37.431Z,75.92
2022-09-12T18:56:10.307Z,76.92
2022-09-12T18:58:38.890Z,77.92
2022-09-12T19:01:17.668Z,80.11
2022-09-12T19:03:45.613Z,80.84
2022-09-12T19:06:17.949Z,81.48
2022-09-12T19:08:45.703Z,82.42
2022-09-12T19:11:13.220Z,83.35
2022-09-12T19:13:43.228Z,83.79
2022-09-12T19:16:14.220Z,84.03
2022-09-12T19:18:41.631Z,85.24
2022-09-12T19:21:16.678Z,85.09
2022-09-12T19:23:43.664Z,85.76
2022-09-12T19:26:12.592Z,86.35
2022-09-12T19:28:39.812Z,86.89
2022-09-12T19:31:12.969Z,87.03
2022-09-12T19:33:40.518Z,86.24
2022-09-12T19:36:33.742Z,84.83
2022-09-12T19:38:58.653Z,83.68
2022-09-12T19:41:25.442Z,83.34
2022-09-12T19:43:52.031Z,83.81
2022-09-12T19:46:20.795Z,84.83
2022-09-12T19:48:47.895Z,85.17
2022-09-12T19:51:16.106Z,86.16
2022-09-12T19:53:43.543Z,86.45
2022-09-12T19:56:12.005Z,86.61
2022-09-12T19:58:44.285Z,86.53
2022-09-12T20:01:13.262Z,86.77
2022-09-12T20:03:40.182Z,86.64
2022-09-12T20:06:09.507Z,86.41
2022-09-12T20:08:43.934Z,86.89
2022-09-12T20:11:12.303Z,86.55
2022-09-12T20:13:39.257Z,87.00
2022-09-12T20:16:21.755Z,87.23
2022-09-12T20:18:57.650Z,86.83
2022-09-12T20:21:31.226Z,85.84
2022-09-12T20:24:01.519Z,85.04
2022-09-12T20:26:28.175Z,84.89
2022-09-12T20:28:54.831Z,84.54
2022-09-12T20:31:21.585Z,84.55
2022-09-12T20:33:51.801Z,84.38
2022-09-12T20:36:20.695Z,84.59
2022-09-12T20:38:49.893Z,84.55
2022-09-12T20:41:17.275Z,84.63
2022-09-12T20:43:43.874Z,84.65
2022-09-12T20:46:11.435Z,84.65
2022-09-12T20:48:38.966Z,84.72
2022-09-12T20:51:07.273Z,85.14
2022-09-12T20:53:35.380Z,85.81
2022-09-12T20:56:03.698Z,86.36
2022-09-12T20:58:30.326Z,87.02
2022-09-12T21:00:57.122Z,87.38
2022-09-12T21:03:25.462Z,87.71
2022-09-12T21:05:52.717Z,88.12
2022-09-12T21:08:19.427Z,88.52
2022-09-12T21:10:46.088Z,88.48
2022-09-12T21:13:13.746Z,88.59
2022-09-12T21:15:41.392Z,88.73
2022-09-12T21:18:08.144Z,89.35
2022-09-12T21:20:34.815Z,89.58
2022-09-12T21:23:01.656Z,89.34
2022-09-12T21:25:29.512Z,89.41
2022-09-12T21:27:56.158Z,90.01
2022-09-12T21:30:22.772Z,90.37
2022-09-12T21:32:49.413Z,90.12
2022-09-12T21:35:16.430Z,90.18
2022-09-12T21:37:43.096Z,90.39
2022-09-12T21:40:10.138Z,90.25
2022-09-12T21:42:37.330Z,90.22
2022-09-12T21:45:04.291Z,89.69
2022-09-12T21:47:30.986Z,89.98
2022-09-12T21:49:58.441Z,89.66
2022-09-12T21:52:25.411Z,90.05
2022-09-12T21:54:51.992Z,90.26
2022-09-12T21:57:18.599Z,90.80
2022-09-12T21:59:45.198Z,91.49
2022-09-12T22:02:12.475Z,91.79
2022-09-12T22:04:39.205Z,92.02
2022-09-12T22:07:06.039Z,92.23
2022-09-12T22:09:34.358Z,91.78
2022-09-12T22:12:02.457Z,91.71
2022-09-12T22:14:29.682Z,91.77
2022-09-12T22:16:56.802Z,91.93
2022-09-12T22:19:23.494Z,92.41
2022-09-12T22:22:09.103Z,92.39
2022-09-12T22:24:35.716Z,92.16
2022-09-12T22:27:04.711Z,92.27
2022-09-12T22:29:31.999Z,92.63
2022-09-12T22:31:59.663Z,92.67
2022-09-12T22:34:29.130Z,92.72
2022-09-12T22:36:56.371Z,92.86
2022-09-12T22:39:24.077Z,93.20
2022-09-12T22:41:50.985Z,94.12
2022-09-12T22:44:17.891Z,94.22
2022-09-12T22:46:44.765Z,94.22
2022-09-12T22:49:11.424Z,93.78
2022-09-12T22:51:38.527Z,93.67
2022-09-12T22:54:05.902Z,93.75
2022-09-12T22:56:32.791Z,93.85
2022-09-12T22:58:59.421Z,94.58
2022-09-12T23:01:26.091Z,94.44
2022-09-12T23:03:52.806Z,94.34
2022-09-12T23:06:19.465Z,94.71
2022-09-12T23:08:46.124Z,95.22
2022-09-12T23:11:15.506Z,96.26
2022-09-12T23:13:44.916Z,96.51
2022-09-12T23:16:32.093Z,97.37
2022-09-12T23:18:58.757Z,97.67
2022-09-12T23:21:25.505Z,97.51
2022-09-12T23:23:52.243Z,97.40
2022-09-12T23:26:30.724Z,98.07
2022-09-12T23:28:59.372Z,97.49
2022-09-12T23:31:31.436Z,97.67
2022-09-12T23:34:05.960Z,97.03
2022-09-12T23:36:34.211Z,97.22
2022-09-12T23:39:01.161Z,97.43
2022-09-12T23:41:28.120Z,96.96
2022-09-12T23:43:54.835Z,97.15
2022-09-12T23:46:22.326Z,96.91
2022-09-12T23:48:49.522Z,96.66
2022-09-12T23:51:16.298Z,97.38
2022-09-12T23:53:43.060Z,98.05
2022-09-12T23:56:09.991Z,99.02
2022-09-12T23:58:36.919Z,98.76
